Startpagina
METAR-TAF:

METAR-TAF

Vliegvelden :

Koeweit, Koeweit

breedte: 29-13N, lengte: 047-59E, hoogte: 55 m

Actueel weer

Dit bericht is 44 minuten geleden gemaakt, om 13:00 UTC
Wind 5 kt uit het oosten
Temperatuur 43°C
Vochtigheid 17%
Druk 997 hPa
Zicht: 7000 m

METAR: OKBK 211300Z 10005KT 7000 NSC 43/13 Q0997 NOSIG

Tijdstip: 16:44 (13:44 UTC)

Verwachting

Dit bericht is 2 uur en het 59 minuten geleden gemaakt, om 10:45 UTC
Verwachting geldig van 21 om 12 UTC tot 22 om 18 UTC
Wind 12 kt uit het oostzuidoosten
Zicht: 6000 m
Tijdelijke
van 21 om 12 UTC tot 21 om 20 UTC
Wind 3 kt uit variabele richting
Heiigheid

TAF: OKBK 211045Z 2112/2218 12012KT 6000 NSC TEMPO 2112/2120 VRB03KT 4 000 HZ

Waarnemingen en weersverwachtingen van meer dan 4000 vliegvelden (METAR en TAF).

De beschikbare stations zijn de gele en rode punten op de kaart.

Ga met uw muis naar het station om de naam te zien.

Klik dan om waarnemingen en weersverwachtingen te zien.

kaart wijzigen: klik op de groene knoppen met een zwart kruis om in te zoomen, op de groene knop met een streepje om uit te zoomen of op de groene pijlen voor aangrenzende kaarten.


METAR-TAF: